sensor_id;sensor_type;location;lat;lon;timestamp;temperature;humidity
55777;DHT22;54079;44.540;18.784;2023-10-13T00:00:30;15.80;99.90
55777;DHT22;54079;44.540;18.784;2023-10-13T00:02:59;15.90;99.90
55777;DHT22;54079;44.540;18.784;2023-10-13T00:05:29;15.90;99.90
55777;DHT22;54079;44.540;18.784;2023-10-13T00:08:02;15.90;99.90
55777;DHT22;54079;44.540;18.784;2023-10-13T00:10:29;15.90;99.90
55777;DHT22;54079;44.540;18.784;2023-10-13T00:12:55;15.90;99.90
55777;DHT22;54079;44.540;18.784;2023-10-13T00:15:31;15.90;99.90
55777;DHT22;54079;44.540;18.784;2023-10-13T00:18:05;15.90;99.90
55777;DHT22;54079;44.540;18.784;2023-10-13T00:20:39;16.00;99.90
55777;DHT22;54079;44.540;18.784;2023-10-13T00:23:05;16.00;99.90
55777;DHT22;54079;44.540;18.784;2023-10-13T00:25:32;16.00;99.90
55777;DHT22;54079;44.540;18.784;2023-10-13T00:28:05;16.10;99.90
55777;DHT22;54079;44.540;18.784;2023-10-13T00:30:34;16.10;99.90
55777;DHT22;54079;44.540;18.784;2023-10-13T00:33:00;15.80;99.90
55777;DHT22;54079;44.540;18.784;2023-10-13T00:35:28;15.80;99.90
55777;DHT22;54079;44.540;18.784;2023-10-13T00:37:55;16.00;99.90
55777;DHT22;54079;44.540;18.784;2023-10-13T00:40:30;16.00;99.90
55777;DHT22;54079;44.540;18.784;2023-10-13T00:43:01;15.90;99.90
55777;DHT22;54079;44.540;18.784;2023-10-13T00:45:58;15.80;99.90
55777;DHT22;54079;44.540;18.784;2023-10-13T00:48:33;15.60;99.90
55777;DHT22;54079;44.540;18.784;2023-10-13T00:51:05;15.60;99.90
55777;DHT22;54079;44.540;18.784;2023-10-13T00:53:38;15.80;99.90
55777;DHT22;54079;44.540;18.784;2023-10-13T00:56:10;15.70;99.90
55777;DHT22;54079;44.540;18.784;2023-10-13T00:58:45;15.70;99.90
55777;DHT22;54079;44.540;18.784;2023-10-13T01:01:18;15.50;99.90
55777;DHT22;54079;44.540;18.784;2023-10-13T01:03:48;15.60;99.90
55777;DHT22;54079;44.540;18.784;2023-10-13T01:06:16;15.50;99.90
55777;DHT22;54079;44.540;18.784;2023-10-13T01:08:47;15.60;99.90
55777;DHT22;54079;44.540;18.784;2023-10-13T01:11:18;15.60;99.90
55777;DHT22;54079;44.540;18.784;2023-10-13T01:13:44;15.70;99.90
55777;DHT22;54079;44.540;18.784;2023-10-13T01:16:12;15.60;99.90
55777;DHT22;54079;44.540;18.784;2023-10-13T01:18:38;15.60;99.90
55777;DHT22;54079;44.540;18.784;2023-10-13T01:21:16;15.70;99.90
55777;DHT22;54079;44.540;18.784;2023-10-13T01:23:49;15.70;99.90
55777;DHT22;54079;44.540;18.784;2023-10-13T01:26:16;15.70;99.90
55777;DHT22;54079;44.540;18.784;2023-10-13T01:28:50;15.50;99.90
55777;DHT22;54079;44.540;18.784;2023-10-13T01:31:16;15.20;99.90
55777;DHT22;54079;44.540;18.784;2023-10-13T01:34:16;15.20;99.90
55777;DHT22;54079;44.540;18.784;2023-10-13T01:36:55;15.20;99.90
55777;DHT22;54079;44.540;18.784;2023-10-13T01:39:25;15.30;99.90
55777;DHT22;54079;44.540;18.784;2023-10-13T01:41:55;15.20;99.90
55777;DHT22;54079;44.540;18.784;2023-10-13T01:44:25;15.20;99.90
55777;DHT22;54079;44.540;18.784;2023-10-13T01:46:59;15.20;99.90
55777;DHT22;54079;44.540;18.784;2023-10-13T01:49:35;15.00;99.90
55777;DHT22;54079;44.540;18.784;2023-10-13T01:52:27;15.20;99.90
55777;DHT22;54079;44.540;18.784;2023-10-13T01:54:55;15.30;99.90
55777;DHT22;54079;44.540;18.784;2023-10-13T01:57:23;15.30;99.90
55777;DHT22;54079;44.540;18.784;2023-10-13T01:59:50;15.30;99.90
55777;DHT22;54079;44.540;18.784;2023-10-13T02:02:16;15.40;99.90
55777;DHT22;54079;44.540;18.784;2023-10-13T02:04:54;15.40;99.90
55777;DHT22;54079;44.540;18.784;2023-10-13T02:07:26;15.50;99.90
55777;DHT22;54079;44.540;18.784;2023-10-13T02:09:56;15.50;99.90
55777;DHT22;54079;44.540;18.784;2023-10-13T02:12:22;15.50;99.90
55777;DHT22;54079;44.540;18.784;2023-10-13T02:15:06;15.50;99.90
55777;DHT22;54079;44.540;18.784;2023-10-13T02:17:32;15.40;99.90
55777;DHT22;54079;44.540;18.784;2023-10-13T02:20:08;15.20;99.90
55777;DHT22;54079;44.540;18.784;2023-10-13T02:22:40;15.20;99.90
55777;DHT22;54079;44.540;18.784;2023-10-13T02:25:18;15.20;99.90
55777;DHT22;54079;44.540;18.784;2023-10-13T02:28:03;15.20;99.90
55777;DHT22;54079;44.540;18.784;2023-10-13T02:30:43;15.20;99.90
55777;DHT22;54079;44.540;18.784;2023-10-13T02:33:15;15.20;99.90
55777;DHT22;54079;44.540;18.784;2023-10-13T02:35:50;15.20;99.90
55777;DHT22;54079;44.540;18.784;2023-10-13T02:38:19;15.30;99.90
55777;DHT22;54079;44.540;18.784;2023-10-13T02:41:09;15.40;99.90
55777;DHT22;54079;44.540;18.784;2023-10-13T02:43:36;15.40;99.90
55777;DHT22;54079;44.540;18.784;2023-10-13T02:46:04;15.30;99.90
55777;DHT22;54079;44.540;18.784;2023-10-13T02:48:30;15.20;99.90
55777;DHT22;54079;44.540;18.784;2023-10-13T02:51:06;15.30;99.90
55777;DHT22;54079;44.540;18.784;2023-10-13T02:53:44;15.10;99.90
55777;DHT22;54079;44.540;18.784;2023-10-13T02:56:18;15.20;99.90
55777;DHT22;54079;44.540;18.784;2023-10-13T02:58:52;15.20;99.90
55777;DHT22;54079;44.540;18.784;2023-10-13T03:01:35;15.20;99.90
55777;DHT22;54079;44.540;18.784;2023-10-13T03:04:03;15.20;99.90
55777;DHT22;54079;44.540;18.784;2023-10-13T03:06:29;15.00;99.90
55777;DHT22;54079;44.540;18.784;2023-10-13T03:08:59;15.10;99.90
55777;DHT22;54079;44.540;18.784;2023-10-13T03:11:43;15.20;99.90
55777;DHT22;54079;44.540;18.784;2023-10-13T03:16:56;15.20;99.90
55777;DHT22;54079;44.540;18.784;2023-10-13T03:19:32;15.00;99.90
55777;DHT22;54079;44.540;18.784;2023-10-13T03:22:06;15.10;99.90
55777;DHT22;54079;44.540;18.784;2023-10-13T03:24:36;15.00;99.90
55777;DHT22;54079;44.540;18.784;2023-10-13T03:27:05;15.00;99.90
55777;DHT22;54079;44.540;18.784;2023-10-13T03:29:40;15.10;99.90
55777;DHT22;54079;44.540;18.784;2023-10-13T03:32:10;15.00;99.90
55777;DHT22;54079;44.540;18.784;2023-10-13T03:34:42;15.00;99.90
55777;DHT22;54079;44.540;18.784;2023-10-13T03:37:36;15.10;99.90
55777;DHT22;54079;44.540;18.784;2023-10-13T03:40:07;15.00;99.90
55777;DHT22;54079;44.540;18.784;2023-10-13T03:42:45;14.80;99.90
55777;DHT22;54079;44.540;18.784;2023-10-13T03:45:24;14.70;99.90
55777;DHT22;54079;44.540;18.784;2023-10-13T03:47:51;14.80;99.90
55777;DHT22;54079;44.540;18.784;2023-10-13T03:50:20;14.90;99.90
55777;DHT22;54079;44.540;18.784;2023-10-13T03:52:57;14.90;99.90
55777;DHT22;54079;44.540;18.784;2023-10-13T03:55:27;14.70;99.90
55777;DHT22;54079;44.540;18.784;2023-10-13T03:57:54;14.80;99.90
55777;DHT22;54079;44.540;18.784;2023-10-13T04:00:21;14.90;99.90
55777;DHT22;54079;44.540;18.784;2023-10-13T04:02:49;14.90;99.90
55777;DHT22;54079;44.540;18.784;2023-10-13T04:05:33;15.00;99.90
55777;DHT22;54079;44.540;18.784;2023-10-13T04:08:04;15.00;99.90
55777;DHT22;54079;44.540;18.784;2023-10-13T04:10:49;15.00;99.90
55777;DHT22;54079;44.540;18.784;2023-10-13T04:13:18;14.90;99.90
55777;DHT22;54079;44.540;18.784;2023-10-13T04:16:03;14.80;99.90
55777;DHT22;54079;44.540;18.784;2023-10-13T04:18:48;14.70;99.90
55777;DHT22;54079;44.540;18.784;2023-10-13T04:21:23;14.80;99.90
55777;DHT22;54079;44.540;18.784;2023-10-13T04:24:11;14.80;99.90
55777;DHT22;54079;44.540;18.784;2023-10-13T04:26:44;15.00;99.90
55777;DHT22;54079;44.540;18.784;2023-10-13T04:29:29;15.00;99.90
55777;DHT22;54079;44.540;18.784;2023-10-13T04:32:16;14.90;99.90
55777;DHT22;54079;44.540;18.784;2023-10-13T04:34:59;14.70;99.90
55777;DHT22;54079;44.540;18.784;2023-10-13T04:37:43;14.80;99.90
55777;DHT22;54079;44.540;18.784;2023-10-13T04:40:27;14.80;99.90
55777;DHT22;54079;44.540;18.784;2023-10-13T04:43:01;14.90;99.90
55777;DHT22;54079;44.540;18.784;2023-10-13T04:45:52;14.90;99.90
55777;DHT22;54079;44.540;18.784;2023-10-13T04:48:21;14.80;99.90
55777;DHT22;54079;44.540;18.784;2023-10-13T04:50:48;14.80;99.90
55777;DHT22;54079;44.540;18.784;2023-10-13T04:53:18;14.80;99.90
55777;DHT22;54079;44.540;18.784;2023-10-13T04:56:13;14.80;99.90
55777;DHT22;54079;44.540;18.784;2023-10-13T04:58:57;14.90;99.90
55777;DHT22;54079;44.540;18.784;2023-10-13T05:01:42;15.00;99.90
55777;DHT22;54079;44.540;18.784;2023-10-13T05:04:22;14.90;99.90
55777;DHT22;54079;44.540;18.784;2023-10-13T05:07:04;15.00;99.90
55777;DHT22;54079;44.540;18.784;2023-10-13T05:09:49;15.00;99.90
55777;DHT22;54079;44.540;18.784;2023-10-13T05:12:33;14.90;99.90
55777;DHT22;54079;44.540;18.784;2023-10-13T05:15:19;14.80;99.90
55777;DHT22;54079;44.540;18.784;2023-10-13T05:18:04;15.00;99.90
55777;DHT22;54079;44.540;18.784;2023-10-13T05:20:48;15.10;99.90
55777;DHT22;54079;44.540;18.784;2023-10-13T05:23:34;15.00;99.90
55777;DHT22;54079;44.540;18.784;2023-10-13T05:26:19;15.20;99.90
55777;DHT22;54079;44.540;18.784;2023-10-13T05:29:03;15.40;99.90
55777;DHT22;54079;44.540;18.784;2023-10-13T05:31:47;15.60;99.90
55777;DHT22;54079;44.540;18.784;2023-10-13T05:34:32;15.60;99.90
55777;DHT22;54079;44.540;18.784;2023-10-13T05:37:16;15.50;99.90
55777;DHT22;54079;44.540;18.784;2023-10-13T05:40:00;15.60;99.90
55777;DHT22;54079;44.540;18.784;2023-10-13T05:42:44;15.90;99.90
55777;DHT22;54079;44.540;18.784;2023-10-13T05:45:28;16.00;99.90
55777;DHT22;54079;44.540;18.784;2023-10-13T05:48:23;16.40;99.90
55777;DHT22;54079;44.540;18.784;2023-10-13T05:51:07;16.50;99.90
55777;DHT22;54079;44.540;18.784;2023-10-13T05:53:51;16.80;99.90
55777;DHT22;54079;44.540;18.784;2023-10-13T05:56:36;17.00;99.90
55777;DHT22;54079;44.540;18.784;2023-10-13T05:59:20;17.30;99.90
55777;DHT22;54079;44.540;18.784;2023-10-13T06:02:05;17.50;99.90
55777;DHT22;54079;44.540;18.784;2023-10-13T06:04:49;17.70;99.90
55777;DHT22;54079;44.540;18.784;2023-10-13T06:07:34;17.90;99.90
55777;DHT22;54079;44.540;18.784;2023-10-13T06:10:18;18.10;99.90
55777;DHT22;54079;44.540;18.784;2023-10-13T06:13:02;18.30;99.90
55777;DHT22;54079;44.540;18.784;2023-10-13T06:15:47;18.50;99.90
55777;DHT22;54079;44.540;18.784;2023-10-13T06:18:31;18.70;99.90
55777;DHT22;54079;44.540;18.784;2023-10-13T06:21:15;18.80;99.90
55777;DHT22;54079;44.540;18.784;2023-10-13T06:23:59;18.90;99.90
55777;DHT22;54079;44.540;18.784;2023-10-13T06:26:43;19.20;99.90
55777;DHT22;54079;44.540;18.784;2023-10-13T06:29:27;19.50;99.90
55777;DHT22;54079;44.540;18.784;2023-10-13T06:31:53;19.80;99.90
55777;DHT22;54079;44.540;18.784;2023-10-13T06:34:22;19.90;99.90
55777;DHT22;54079;44.540;18.784;2023-10-13T06:37:04;20.00;99.90
55777;DHT22;54079;44.540;18.784;2023-10-13T06:39:48;20.30;99.90
55777;DHT22;54079;44.540;18.784;2023-10-13T06:42:14;20.30;99.90
55777;DHT22;54079;44.540;18.784;2023-10-13T06:44:42;21.40;99.90
55777;DHT22;54079;44.540;18.784;2023-10-13T06:47:12;23.00;97.50
55777;DHT22;54079;44.540;18.784;2023-10-13T06:49:41;24.20;93.50
55777;DHT22;54079;44.540;18.784;2023-10-13T06:52:09;27.30;84.40
55777;DHT22;54079;44.540;18.784;2023-10-13T06:54:36;28.70;75.00
55777;DHT22;54079;44.540;18.784;2023-10-13T06:57:05;30.40;70.30
55777;DHT22;54079;44.540;18.784;2023-10-13T06:59:33;31.70;65.00
55777;DHT22;54079;44.540;18.784;2023-10-13T07:02:02;32.90;62.10
55777;DHT22;54079;44.540;18.784;2023-10-13T07:04:47;33.80;59.10
55777;DHT22;54079;44.540;18.784;2023-10-13T07:07:13;33.50;58.40
55777;DHT22;54079;44.540;18.784;2023-10-13T07:09:44;34.70;57.70
55777;DHT22;54079;44.540;18.784;2023-10-13T07:12:21;36.10;55.20
55777;DHT22;54079;44.540;18.784;2023-10-13T07:14:53;36.50;53.20
55777;DHT22;54079;44.540;18.784;2023-10-13T07:17:29;36.50;52.90
55777;DHT22;54079;44.540;18.784;2023-10-13T07:19:59;37.50;51.70
55777;DHT22;54079;44.540;18.784;2023-10-13T07:23:03;38.20;50.60
55777;DHT22;54079;44.540;18.784;2023-10-13T07:25:30;38.90;49.70
55777;DHT22;54079;44.540;18.784;2023-10-13T07:28:01;39.60;49.20
55777;DHT22;54079;44.540;18.784;2023-10-13T07:30:29;39.30;48.20
55777;DHT22;54079;44.540;18.784;2023-10-13T07:33:05;39.10;48.50
55777;DHT22;54079;44.540;18.784;2023-10-13T07:35:31;39.60;48.00
55777;DHT22;54079;44.540;18.784;2023-10-13T07:38:01;39.10;47.90
55777;DHT22;54079;44.540;18.784;2023-10-13T07:40:28;38.80;47.70
55777;DHT22;54079;44.540;18.784;2023-10-13T07:42:55;39.40;47.30
55777;DHT22;54079;44.540;18.784;2023-10-13T07:45:29;39.10;46.40
55777;DHT22;54079;44.540;18.784;2023-10-13T07:48:03;39.30;47.30
55777;DHT22;54079;44.540;18.784;2023-10-13T07:50:41;40.00;46.80
55777;DHT22;54079;44.540;18.784;2023-10-13T07:53:07;40.60;45.80
55777;DHT22;54079;44.540;18.784;2023-10-13T07:55:49;41.60;44.90
55777;DHT22;54079;44.540;18.784;2023-10-13T07:58:23;42.10;44.40
55777;DHT22;54079;44.540;18.784;2023-10-13T08:00:52;42.80;44.00
55777;DHT22;54079;44.540;18.784;2023-10-13T08:03:24;43.20;44.00
55777;DHT22;54079;44.540;18.784;2023-10-13T08:06:19;43.40;43.50
55777;DHT22;54079;44.540;18.784;2023-10-13T08:08:46;43.40;43.20
55777;DHT22;54079;44.540;18.784;2023-10-13T08:11:16;43.80;43.00
55777;DHT22;54079;44.540;18.784;2023-10-13T08:13:59;44.00;42.30
55777;DHT22;54079;44.540;18.784;2023-10-13T08:16:28;44.40;42.20
55777;DHT22;54079;44.540;18.784;2023-10-13T08:19:17;45.00;41.80
55777;DHT22;54079;44.540;18.784;2023-10-13T08:21:44;45.20;41.50
55777;DHT22;54079;44.540;18.784;2023-10-13T08:24:23;45.90;40.90
55777;DHT22;54079;44.540;18.784;2023-10-13T08:27:05;46.60;40.70
55777;DHT22;54079;44.540;18.784;2023-10-13T08:29:44;46.50;40.50
55777;DHT22;54079;44.540;18.784;2023-10-13T08:32:20;46.60;40.20
55777;DHT22;54079;44.540;18.784;2023-10-13T08:37:25;46.80;39.40
55777;DHT22;54079;44.540;18.784;2023-10-13T08:39:53;47.00;39.70
55777;DHT22;54079;44.540;18.784;2023-10-13T08:42:32;46.50;39.80
55777;DHT22;54079;44.540;18.784;2023-10-13T08:45:12;46.40;40.40
55777;DHT22;54079;44.540;18.784;2023-10-13T08:47:50;46.50;40.30
55777;DHT22;54079;44.540;18.784;2023-10-13T08:50:34;46.60;40.20
55777;DHT22;54079;44.540;18.784;2023-10-13T08:56:07;45.20;40.60
55777;DHT22;54079;44.540;18.784;2023-10-13T08:58:43;45.10;40.50
55777;DHT22;54079;44.540;18.784;2023-10-13T09:01:19;45.50;41.00
55777;DHT22;54079;44.540;18.784;2023-10-13T09:04:09;45.20;40.30
55777;DHT22;54079;44.540;18.784;2023-10-13T09:07:00;44.20;40.70
55777;DHT22;54079;44.540;18.784;2023-10-13T09:09:48;44.10;40.40
55777;DHT22;54079;44.540;18.784;2023-10-13T09:12:21;42.00;41.90
55777;DHT22;54079;44.540;18.784;2023-10-13T09:15:03;38.50;44.00
55777;DHT22;54079;44.540;18.784;2023-10-13T09:17:48;36.10;46.70
55777;DHT22;54079;44.540;18.784;2023-10-13T09:20:28;33.70;49.10
55777;DHT22;54079;44.540;18.784;2023-10-13T09:23:17;32.80;50.30
55777;DHT22;54079;44.540;18.784;2023-10-13T09:25:53;31.90;51.10
55777;DHT22;54079;44.540;18.784;2023-10-13T09:28:34;31.30;52.60
55777;DHT22;54079;44.540;18.784;2023-10-13T09:31:03;30.70;53.20
55777;DHT22;54079;44.540;18.784;2023-10-13T09:33:33;30.10;53.70
55777;DHT22;54079;44.540;18.784;2023-10-13T09:36:05;29.90;54.50
55777;DHT22;54079;44.540;18.784;2023-10-13T09:38:38;29.70;54.90
55777;DHT22;54079;44.540;18.784;2023-10-13T09:41:13;29.50;55.50
55777;DHT22;54079;44.540;18.784;2023-10-13T09:43:45;29.30;55.80
55777;DHT22;54079;44.540;18.784;2023-10-13T09:46:18;28.90;56.10
55777;DHT22;54079;44.540;18.784;2023-10-13T09:48:45;28.80;57.20
55777;DHT22;54079;44.540;18.784;2023-10-13T09:51:18;28.80;56.50
55777;DHT22;54079;44.540;18.784;2023-10-13T09:57:12;28.70;57.50
55777;DHT22;54079;44.540;18.784;2023-10-13T09:59:50;28.50;57.60
55777;DHT22;54079;44.540;18.784;2023-10-13T10:02:19;28.30;58.00
55777;DHT22;54079;44.540;18.784;2023-10-13T10:04:52;28.30;58.20
55777;DHT22;54079;44.540;18.784;2023-10-13T10:07:25;28.30;58.10
55777;DHT22;54079;44.540;18.784;2023-10-13T10:10:00;28.30;57.70
55777;DHT22;54079;44.540;18.784;2023-10-13T10:12:47;28.20;58.20
55777;DHT22;54079;44.540;18.784;2023-10-13T10:15:35;28.20;58.10
55777;DHT22;54079;44.540;18.784;2023-10-13T10:18:21;28.40;58.20
55777;DHT22;54079;44.540;18.784;2023-10-13T10:21:06;28.50;58.30
55777;DHT22;54079;44.540;18.784;2023-10-13T10:23:36;28.30;58.20
55777;DHT22;54079;44.540;18.784;2023-10-13T10:26:16;28.30;58.30
55777;DHT22;54079;44.540;18.784;2023-10-13T10:28:48;28.40;57.30
55777;DHT22;54079;44.540;18.784;2023-10-13T10:31:15;28.20;58.50
55777;DHT22;54079;44.540;18.784;2023-10-13T10:33:43;28.30;58.20
55777;DHT22;54079;44.540;18.784;2023-10-13T10:36:10;28.20;58.50
55777;DHT22;54079;44.540;18.784;2023-10-13T10:38:56;28.30;58.40
55777;DHT22;54079;44.540;18.784;2023-10-13T10:41:27;28.20;58.30
55777;DHT22;54079;44.540;18.784;2023-10-13T10:44:12;28.20;57.90
55777;DHT22;54079;44.540;18.784;2023-10-13T10:47:15;28.20;57.00
55777;DHT22;54079;44.540;18.784;2023-10-13T10:49:57;28.00;58.70
55777;DHT22;54079;44.540;18.784;2023-10-13T10:52:26;28.10;58.30
55777;DHT22;54079;44.540;18.784;2023-10-13T10:54:59;28.00;58.20
55777;DHT22;54079;44.540;18.784;2023-10-13T10:57:26;28.10;58.70
55777;DHT22;54079;44.540;18.784;2023-10-13T10:59:55;28.30;58.30
55777;DHT22;54079;44.540;18.784;2023-10-13T11:02:40;28.30;58.00
55777;DHT22;54079;44.540;18.784;2023-10-13T11:05:08;28.30;57.60
55777;DHT22;54079;44.540;18.784;2023-10-13T11:07:45;28.10;58.80
55777;DHT22;54079;44.540;18.784;2023-10-13T11:10:17;28.20;59.30
55777;DHT22;54079;44.540;18.784;2023-10-13T11:12:58;27.90;59.60
55777;DHT22;54079;44.540;18.784;2023-10-13T11:15:43;28.10;58.10
55777;DHT22;54079;44.540;18.784;2023-10-13T11:18:12;28.10;58.00
55777;DHT22;54079;44.540;18.784;2023-10-13T11:21:00;28.00;58.00
55777;DHT22;54079;44.540;18.784;2023-10-13T11:23:33;28.10;58.30
55777;DHT22;54079;44.540;18.784;2023-10-13T11:26:08;28.10;58.60
55777;DHT22;54079;44.540;18.784;2023-10-13T11:28:34;28.20;58.20
55777;DHT22;54079;44.540;18.784;2023-10-13T11:31:00;28.20;58.50
55777;DHT22;54079;44.540;18.784;2023-10-13T11:33:45;28.40;58.40
55777;DHT22;54079;44.540;18.784;2023-10-13T11:36:16;28.20;57.20
55777;DHT22;54079;44.540;18.784;2023-10-13T11:38:50;28.20;58.20
55777;DHT22;54079;44.540;18.784;2023-10-13T11:41:23;28.20;58.50
55777;DHT22;54079;44.540;18.784;2023-10-13T11:43:53;28.30;58.20
55777;DHT22;54079;44.540;18.784;2023-10-13T11:46:34;28.30;58.00
55777;DHT22;54079;44.540;18.784;2023-10-13T11:49:00;28.10;57.20
55777;DHT22;54079;44.540;18.784;2023-10-13T11:51:46;28.00;58.00
55777;DHT22;54079;44.540;18.784;2023-10-13T11:54:22;28.10;58.00
55777;DHT22;54079;44.540;18.784;2023-10-13T11:56:49;28.10;58.00
55777;DHT22;54079;44.540;18.784;2023-10-13T11:59:15;28.10;55.30
55777;DHT22;54079;44.540;18.784;2023-10-13T12:01:52;28.10;57.00
55777;DHT22;54079;44.540;18.784;2023-10-13T12:04:37;28.00;54.60
55777;DHT22;54079;44.540;18.784;2023-10-13T12:07:21;27.70;56.00
55777;DHT22;54079;44.540;18.784;2023-10-13T12:09:53;27.90;56.30
55777;DHT22;54079;44.540;18.784;2023-10-13T12:12:26;28.00;57.40
55777;DHT22;54079;44.540;18.784;2023-10-13T12:14:54;28.10;56.90
55777;DHT22;54079;44.540;18.784;2023-10-13T12:17:28;28.10;56.00
55777;DHT22;54079;44.540;18.784;2023-10-13T12:20:00;27.90;57.60
55777;DHT22;54079;44.540;18.784;2023-10-13T12:22:30;27.90;56.70
55777;DHT22;54079;44.540;18.784;2023-10-13T12:25:09;27.90;57.00
55777;DHT22;54079;44.540;18.784;2023-10-13T12:27:52;28.10;56.90
55777;DHT22;54079;44.540;18.784;2023-10-13T12:30:22;27.90;57.50
55777;DHT22;54079;44.540;18.784;2023-10-13T12:33:04;28.10;57.00
55777;DHT22;54079;44.540;18.784;2023-10-13T12:35:39;28.30;56.10
55777;DHT22;54079;44.540;18.784;2023-10-13T12:38:36;28.10;55.00
55777;DHT22;54079;44.540;18.784;2023-10-13T12:41:25;28.20;56.30
55777;DHT22;54079;44.540;18.784;2023-10-13T12:44:09;28.30;54.90
55777;DHT22;54079;44.540;18.784;2023-10-13T12:46:53;28.30;55.80
55777;DHT22;54079;44.540;18.784;2023-10-13T12:49:37;28.20;55.00
55777;DHT22;54079;44.540;18.784;2023-10-13T12:52:06;28.20;55.30
55777;DHT22;54079;44.540;18.784;2023-10-13T12:54:51;28.20;55.40
55777;DHT22;54079;44.540;18.784;2023-10-13T12:57:27;28.00;54.80
55777;DHT22;54079;44.540;18.784;2023-10-13T12:59:54;28.20;55.30
55777;DHT22;54079;44.540;18.784;2023-10-13T13:02:24;28.30;53.60
55777;DHT22;54079;44.540;18.784;2023-10-13T13:04:54;28.00;52.50
55777;DHT22;54079;44.540;18.784;2023-10-13T13:07:27;28.20;53.30
55777;DHT22;54079;44.540;18.784;2023-10-13T13:09:56;28.10;53.70
55777;DHT22;54079;44.540;18.784;2023-10-13T13:12:26;28.30;55.00
55777;DHT22;54079;44.540;18.784;2023-10-13T13:14:54;28.50;54.30
55777;DHT22;54079;44.540;18.784;2023-10-13T13:17:23;28.30;53.40
55777;DHT22;54079;44.540;18.784;2023-10-13T13:19:49;28.40;53.70
55777;DHT22;54079;44.540;18.784;2023-10-13T13:22:15;28.60;54.00
55777;DHT22;54079;44.540;18.784;2023-10-13T13:24:44;28.60;53.70
55777;DHT22;54079;44.540;18.784;2023-10-13T13:27:16;28.40;52.50
55777;DHT22;54079;44.540;18.784;2023-10-13T13:29:50;28.40;52.80
55777;DHT22;54079;44.540;18.784;2023-10-13T13:32:15;28.40;53.50
55777;DHT22;54079;44.540;18.784;2023-10-13T13:34:52;28.40;53.90
55777;DHT22;54079;44.540;18.784;2023-10-13T13:37:30;28.30;53.20
55777;DHT22;54079;44.540;18.784;2023-10-13T13:39:57;28.30;53.50
55777;DHT22;54079;44.540;18.784;2023-10-13T13:42:41;28.40;53.80
55777;DHT22;54079;44.540;18.784;2023-10-13T13:45:13;28.50;53.20
55777;DHT22;54079;44.540;18.784;2023-10-13T13:47:50;28.50;53.50
55777;DHT22;54079;44.540;18.784;2023-10-13T13:50:23;28.50;53.30
55777;DHT22;54079;44.540;18.784;2023-10-13T13:52:56;28.50;53.10
55777;DHT22;54079;44.540;18.784;2023-10-13T13:55:23;28.50;53.70
55777;DHT22;54079;44.540;18.784;2023-10-13T13:57:50;28.50;54.40
55777;DHT22;54079;44.540;18.784;2023-10-13T14:00:19;28.40;54.70
55777;DHT22;54079;44.540;18.784;2023-10-13T14:03:11;28.20;54.20
55777;DHT22;54079;44.540;18.784;2023-10-13T14:06:00;28.10;53.80
55777;DHT22;54079;44.540;18.784;2023-10-13T14:08:26;28.20;53.50
55777;DHT22;54079;44.540;18.784;2023-10-13T14:10:53;28.20;54.70
55777;DHT22;54079;44.540;18.784;2023-10-13T14:13:38;28.30;54.60
55777;DHT22;54079;44.540;18.784;2023-10-13T14:16:20;28.30;54.10
55777;DHT22;54079;44.540;18.784;2023-10-13T14:18:49;28.20;54.60
55777;DHT22;54079;44.540;18.784;2023-10-13T14:21:16;28.30;54.80
55777;DHT22;54079;44.540;18.784;2023-10-13T14:23:48;28.20;54.50
55777;DHT22;54079;44.540;18.784;2023-10-13T14:26:16;28.20;55.30
55777;DHT22;54079;44.540;18.784;2023-10-13T14:28:51;28.30;55.40
55777;DHT22;54079;44.540;18.784;2023-10-13T14:31:29;28.30;55.60
55777;DHT22;54079;44.540;18.784;2023-10-13T14:33:56;28.20;55.40
55777;DHT22;54079;44.540;18.784;2023-10-13T14:36:23;28.20;55.00
55777;DHT22;54079;44.540;18.784;2023-10-13T14:38:49;28.10;54.80
55777;DHT22;54079;44.540;18.784;2023-10-13T14:41:18;28.10;54.90
55777;DHT22;54079;44.540;18.784;2023-10-13T14:43:45;28.10;55.00
55777;DHT22;54079;44.540;18.784;2023-10-13T14:46:18;28.00;55.50
55777;DHT22;54079;44.540;18.784;2023-10-13T14:48:51;28.00;56.00
55777;DHT22;54079;44.540;18.784;2023-10-13T14:51:17;28.00;56.50
55777;DHT22;54079;44.540;18.784;2023-10-13T14:53:44;27.90;56.90
55777;DHT22;54079;44.540;18.784;2023-10-13T14:56:11;27.80;56.80
55777;DHT22;54079;44.540;18.784;2023-10-13T14:58:41;27.80;57.00
55777;DHT22;54079;44.540;18.784;2023-10-13T15:01:22;27.80;57.70
55777;DHT22;54079;44.540;18.784;2023-10-13T15:03:53;27.70;58.10
55777;DHT22;54079;44.540;18.784;2023-10-13T15:06:24;27.60;59.00
55777;DHT22;54079;44.540;18.784;2023-10-13T15:08:52;27.60;58.80
55777;DHT22;54079;44.540;18.784;2023-10-13T15:11:21;27.50;60.10
55777;DHT22;54079;44.540;18.784;2023-10-13T15:13:55;27.40;59.00
55777;DHT22;54079;44.540;18.784;2023-10-13T15:16:24;27.40;58.80
55777;DHT22;54079;44.540;18.784;2023-10-13T15:18:51;27.30;58.90
55777;DHT22;54079;44.540;18.784;2023-10-13T15:21:21;27.10;58.30
55777;DHT22;54079;44.540;18.784;2023-10-13T15:23:48;27.10;61.60
55777;DHT22;54079;44.540;18.784;2023-10-13T15:26:19;26.90;61.30
55777;DHT22;54079;44.540;18.784;2023-10-13T15:28:47;26.80;61.20
55777;DHT22;54079;44.540;18.784;2023-10-13T15:31:21;26.60;62.20
55777;DHT22;54079;44.540;18.784;2023-10-13T15:34:13;26.40;62.60
55777;DHT22;54079;44.540;18.784;2023-10-13T15:36:40;26.30;62.80
55777;DHT22;54079;44.540;18.784;2023-10-13T15:39:11;26.10;62.10
55777;DHT22;54079;44.540;18.784;2023-10-13T15:41:41;25.80;63.40
55777;DHT22;54079;44.540;18.784;2023-10-13T15:44:11;25.50;62.60
55777;DHT22;54079;44.540;18.784;2023-10-13T15:46:39;25.40;63.90
55777;DHT22;54079;44.540;18.784;2023-10-13T15:49:05;25.30;63.90
55777;DHT22;54079;44.540;18.784;2023-10-13T15:51:35;25.10;64.10
55777;DHT22;54079;44.540;18.784;2023-10-13T15:54:03;25.00;65.10
55777;DHT22;54079;44.540;18.784;2023-10-13T15:56:29;24.90;65.60
55777;DHT22;54079;44.540;18.784;2023-10-13T15:59:01;24.70;65.90
55777;DHT22;54079;44.540;18.784;2023-10-13T16:01:27;24.50;67.00
55777;DHT22;54079;44.540;18.784;2023-10-13T16:03:54;24.40;66.20
55777;DHT22;54079;44.540;18.784;2023-10-13T16:06:20;24.30;66.60
55777;DHT22;54079;44.540;18.784;2023-10-13T16:08:51;24.20;67.00
55777;DHT22;54079;44.540;18.784;2023-10-13T16:11:18;24.10;67.50
55777;DHT22;54079;44.540;18.784;2023-10-13T16:13:48;24.10;68.40